EZY94WD EGCC-LMML
Flight info
| Callsign | EZY94WD |
|---|---|
| Flight time | 3h 6m |
| Altitude | 35000 |
| Route | LISTO P18 TELBA L151 MID UL612 OGULO DCT OKASI DCT OKEKO DCT MOU DCT MADIV DCT MOKIP DCT TUFTA DCT KOGAS DCT MEDAM DCT NITAM DCT MOGBO DCT TIDKA DCT KONER DCT KISTO DCT ROXAN DCT RONAB DCT PAL DCT MARON L12 GZO |
| Aircraft | A20N/M-SDE2E3FGHIRWXY/LB1 |
Departure
| Time | 2026-05-05 17:37 |
|---|---|
| Airport | Manchester Airport (EGCC) |
Arrival
| Time | 2026-05-05 20:43 |
|---|---|
| Airport | Malta International Airport (LMML) |
| Time | Latitude | Longitude | Altitude | Speed | Heading |
|---|---|---|---|---|---|
| 2026-05-05 17:05 | 53.35976 | -2.26978 | 251 ft | 0 kts | 290° |
| 2026-05-05 17:20 | 53.35971 | -2.26953 | 251 ft | 3 kts | 290° |
| 2026-05-05 17:20 | 53.35964 | -2.26924 | 251 ft | 3 kts | 280° |
| 2026-05-05 17:20 | 53.35966 | -2.26893 | 252 ft | 3 kts | 245° |
| 2026-05-05 17:21 | 53.35974 | -2.26865 | 252 ft | 3 kts | 245° |
| 2026-05-05 17:21 | 53.35982 | -2.26838 | 252 ft | 2 kts | 230° |
| 2026-05-05 17:21 | 53.35993 | -2.26817 | 253 ft | 3 kts | 227° |
| 2026-05-05 17:22 | 53.35994 | -2.26815 | 253 ft | 0 kts | 227° |
| 2026-05-05 17:24 | 53.35990 | -2.26822 | 252 ft | 3 kts | 226° |
| 2026-05-05 17:25 | 53.35971 | -2.26840 | 252 ft | 2 kts | 201° |
| 2026-05-05 17:25 | 53.35967 | -2.26842 | 252 ft | 2 kts | 201° |
| 2026-05-05 17:25 | 53.35964 | -2.26844 | 252 ft | 0 kts | 200° |
| 2026-05-05 17:25 | 53.35953 | -2.26849 | 252 ft | 9 kts | 193° |
| 2026-05-05 17:26 | 53.35867 | -2.26909 | 251 ft | 9 kts | 228° |
| 2026-05-05 17:26 | 53.35840 | -2.26989 | 250 ft | 8 kts | 243° |
| 2026-05-05 17:26 | 53.35821 | -2.27039 | 249 ft | 7 kts | 231° |
| 2026-05-05 17:26 | 53.35794 | -2.27089 | 248 ft | 5 kts | 229° |
| 2026-05-05 17:27 | 53.35759 | -2.27167 | 247 ft | 19 kts | 235° |
| 2026-05-05 17:27 | 53.35668 | -2.27350 | 245 ft | 20 kts | 231° |
| 2026-05-05 17:27 | 53.35589 | -2.27519 | 243 ft | 18 kts | 230° |
| 2026-05-05 17:27 | 53.35514 | -2.27669 | 242 ft | 16 kts | 230° |
| 2026-05-05 17:28 | 53.35461 | -2.27814 | 240 ft | 14 kts | 258° |
| 2026-05-05 17:28 | 53.35430 | -2.27962 | 239 ft | 13 kts | 227° |
| 2026-05-05 17:28 | 53.35359 | -2.28075 | 237 ft | 15 kts | 223° |
| 2026-05-05 17:28 | 53.35283 | -2.28196 | 235 ft | 15 kts | 229° |
| 2026-05-05 17:29 | 53.35214 | -2.28332 | 233 ft | 16 kts | 231° |
| 2026-05-05 17:29 | 53.35144 | -2.28477 | 232 ft | 17 kts | 231° |
| 2026-05-05 17:29 | 53.35070 | -2.28634 | 230 ft | 17 kts | 231° |
| 2026-05-05 17:29 | 53.34988 | -2.28788 | 228 ft | 18 kts | 230° |
| 2026-05-05 17:30 | 53.34911 | -2.28922 | 226 ft | 4 kts | 225° |
| 2026-05-05 17:30 | 53.34889 | -2.28959 | 225 ft | 5 kts | 226° |
| 2026-05-05 17:30 | 53.34876 | -2.28981 | 225 ft | 0 kts | 225° |
| 2026-05-05 17:31 | 53.34874 | -2.28986 | 225 ft | 1 kts | 227° |
| 2026-05-05 17:32 | 53.34868 | -2.28996 | 225 ft | 0 kts | 227° |
| 2026-05-05 17:32 | 53.34866 | -2.29001 | 225 ft | 5 kts | 229° |
| 2026-05-05 17:32 | 53.34818 | -2.29076 | 224 ft | 10 kts | 213° |
| 2026-05-05 17:32 | 53.34801 | -2.29088 | 223 ft | 0 kts | 197° |
| 2026-05-05 17:33 | 53.34799 | -2.29089 | 223 ft | 1 kts | 196° |
| 2026-05-05 17:33 | 53.34797 | -2.29090 | 223 ft | 0 kts | 196° |
| 2026-05-05 17:34 | 53.34770 | -2.29089 | 223 ft | 12 kts | 162° |
| 2026-05-05 17:34 | 53.34689 | -2.29009 | 223 ft | 14 kts | 124° |
| 2026-05-05 17:34 | 53.34702 | -2.28887 | 224 ft | 2 kts | 50° |
| 2026-05-05 17:36 | 53.34702 | -2.28885 | 223 ft | 2 kts | 51° |
| 2026-05-05 17:36 | 53.34768 | -2.28751 | 226 ft | 40 kts | 50° |
| 2026-05-05 17:36 | 53.35094 | -2.28075 | 235 ft | 110 kts | 52° |
| 2026-05-05 17:36 | 53.35726 | -2.26768 | 258 ft | 177 kts | 50° |
| 2026-05-05 17:37 | 53.36536 | -2.25060 | 761 ft | 191 kts | 51° |
| 2026-05-05 17:37 | 53.37303 | -2.23204 | 1529 ft | 202 kts | 65° |
| 2026-05-05 17:37 | 53.37364 | -2.20746 | 2041 ft | 231 kts | 108° |
| 2026-05-05 17:37 | 53.36330 | -2.18607 | 2781 ft | 249 kts | 148° |
| 2026-05-05 17:38 | 53.34677 | -2.17594 | 3555 ft | 259 kts | 167° |
| 2026-05-05 17:38 | 53.32871 | -2.17198 | 4324 ft | 265 kts | 178° |
| 2026-05-05 17:38 | 53.31037 | -2.17229 | 5094 ft | 269 kts | 182° |
| 2026-05-05 17:38 | 53.29133 | -2.17433 | 5876 ft | 272 kts | 184° |
| 2026-05-05 17:39 | 53.27239 | -2.17708 | 6655 ft | 274 kts | 185° |
| 2026-05-05 17:39 | 53.25330 | -2.18015 | 7401 ft | 278 kts | 186° |
| 2026-05-05 17:39 | 53.23398 | -2.18342 | 8169 ft | 282 kts | 187° |
| 2026-05-05 17:39 | 53.21426 | -2.18670 | 8806 ft | 287 kts | 187° |
| 2026-05-05 17:40 | 53.19429 | -2.19004 | 9442 ft | 289 kts | 187° |
| 2026-05-05 17:40 | 53.17420 | -2.19351 | 10077 ft | 291 kts | 188° |
| 2026-05-05 17:40 | 53.15397 | -2.19706 | 10653 ft | 294 kts | 188° |
| 2026-05-05 17:40 | 53.13341 | -2.20060 | 11251 ft | 302 kts | 188° |
| 2026-05-05 17:41 | 53.11215 | -2.20419 | 11856 ft | 311 kts | 187° |
| 2026-05-05 17:41 | 53.09026 | -2.20762 | 12472 ft | 320 kts | 187° |
| 2026-05-05 17:41 | 53.06777 | -2.21107 | 13096 ft | 329 kts | 188° |
| 2026-05-05 17:41 | 53.04476 | -2.21481 | 13742 ft | 337 kts | 188° |
| 2026-05-05 17:42 | 53.02104 | -2.21868 | 14324 ft | 345 kts | 188° |
| 2026-05-05 17:42 | 52.99693 | -2.22256 | 14910 ft | 352 kts | 187° |
| 2026-05-05 17:42 | 52.97239 | -2.22640 | 15507 ft | 358 kts | 187° |
| 2026-05-05 17:42 | 52.94766 | -2.23020 | 16105 ft | 363 kts | 187° |
| 2026-05-05 17:43 | 52.92195 | -2.23412 | 16733 ft | 369 kts | 187° |
| 2026-05-05 17:43 | 52.89657 | -2.23795 | 17262 ft | 376 kts | 187° |
| 2026-05-05 17:43 | 52.87036 | -2.24260 | 17779 ft | 381 kts | 192° |
| 2026-05-05 17:43 | 52.84417 | -2.25056 | 18323 ft | 384 kts | 193° |
| 2026-05-05 17:44 | 52.81788 | -2.25960 | 18800 ft | 386 kts | 194° |
| 2026-05-05 17:44 | 52.79156 | -2.26921 | 19282 ft | 388 kts | 194° |
| 2026-05-05 17:44 | 52.76485 | -2.27631 | 19763 ft | 391 kts | 185° |
| 2026-05-05 17:44 | 52.73756 | -2.27418 | 20264 ft | 396 kts | 171° |
| 2026-05-05 17:45 | 52.71087 | -2.26179 | 20772 ft | 400 kts | 162° |
| 2026-05-05 17:45 | 52.68512 | -2.24397 | 21289 ft | 404 kts | 157° |
| 2026-05-05 17:45 | 52.65990 | -2.22319 | 21823 ft | 407 kts | 154° |
| 2026-05-05 17:45 | 52.63487 | -2.20100 | 22330 ft | 410 kts | 154° |
| 2026-05-05 17:46 | 52.60983 | -2.17840 | 22886 ft | 411 kts | 154° |
| 2026-05-05 17:46 | 52.58460 | -2.15583 | 23436 ft | 412 kts | 154° |
| 2026-05-05 17:46 | 52.55926 | -2.13355 | 23929 ft | 413 kts | 154° |
| 2026-05-05 17:46 | 52.53388 | -2.11161 | 24396 ft | 413 kts | 155° |
| 2026-05-05 17:47 | 52.50841 | -2.08987 | 24879 ft | 413 kts | 155° |
| 2026-05-05 17:47 | 52.48291 | -2.06828 | 25360 ft | 412 kts | 155° |
| 2026-05-05 17:47 | 52.45753 | -2.04689 | 25853 ft | 411 kts | 155° |
| 2026-05-05 17:47 | 52.43208 | -2.02550 | 26372 ft | 409 kts | 155° |
| 2026-05-05 17:48 | 52.40682 | -2.00428 | 26890 ft | 407 kts | 155° |
| 2026-05-05 17:48 | 52.38177 | -1.98325 | 27424 ft | 404 kts | 155° |
| 2026-05-05 17:48 | 52.35680 | -1.96230 | 27949 ft | 401 kts | 155° |
| 2026-05-05 17:48 | 52.33211 | -1.94160 | 28503 ft | 397 kts | 155° |
| 2026-05-05 17:49 | 52.30759 | -1.92105 | 29061 ft | 393 kts | 155° |
| 2026-05-05 17:49 | 52.28350 | -1.90087 | 29591 ft | 390 kts | 155° |
| 2026-05-05 17:49 | 52.25985 | -1.87844 | 29871 ft | 394 kts | 151° |
| 2026-05-05 17:49 | 52.23657 | -1.85451 | 30082 ft | 397 kts | 150° |
| 2026-05-05 17:50 | 52.21335 | -1.83000 | 30277 ft | 401 kts | 149° |
| 2026-05-05 17:50 | 52.18993 | -1.80489 | 30472 ft | 403 kts | 148° |
| 2026-05-05 17:50 | 52.16651 | -1.77941 | 30667 ft | 406 kts | 148° |
| 2026-05-05 17:50 | 52.14323 | -1.75406 | 30860 ft | 409 kts | 148° |
| 2026-05-05 17:51 | 52.11948 | -1.72837 | 31047 ft | 411 kts | 149° |
| 2026-05-05 17:51 | 52.09556 | -1.70271 | 31256 ft | 413 kts | 149° |
| 2026-05-05 17:51 | 52.07156 | -1.67714 | 31456 ft | 415 kts | 149° |
| 2026-05-05 17:51 | 52.04727 | -1.65130 | 31659 ft | 417 kts | 149° |
| 2026-05-05 17:52 | 52.02286 | -1.62541 | 31866 ft | 419 kts | 150° |
| 2026-05-05 17:52 | 51.99837 | -1.59961 | 32056 ft | 420 kts | 149° |
| 2026-05-05 17:52 | 51.97390 | -1.57380 | 32261 ft | 422 kts | 149° |
| 2026-05-05 17:52 | 51.94926 | -1.54794 | 32471 ft | 423 kts | 150° |
| 2026-05-05 17:53 | 51.92440 | -1.52196 | 32682 ft | 424 kts | 149° |
| 2026-05-05 17:53 | 51.89969 | -1.49565 | 32899 ft | 426 kts | 148° |
| 2026-05-05 17:53 | 51.87521 | -1.46861 | 33112 ft | 427 kts | 148° |
| 2026-05-05 17:53 | 51.85091 | -1.44104 | 33328 ft | 428 kts | 147° |
| 2026-05-05 17:54 | 51.82667 | -1.41301 | 33542 ft | 428 kts | 146° |
| 2026-05-05 17:54 | 51.80252 | -1.38486 | 33769 ft | 429 kts | 146° |
| 2026-05-05 17:54 | 51.77832 | -1.35674 | 33985 ft | 429 kts | 146° |
| 2026-05-05 17:54 | 51.75405 | -1.32876 | 34173 ft | 429 kts | 146° |
| 2026-05-05 17:55 | 51.72973 | -1.30094 | 34358 ft | 429 kts | 146° |
| 2026-05-05 17:55 | 51.70535 | -1.27322 | 34546 ft | 429 kts | 147° |
| 2026-05-05 17:55 | 51.68096 | -1.24561 | 34711 ft | 428 kts | 147° |
| 2026-05-05 17:55 | 51.65650 | -1.21799 | 34884 ft | 428 kts | 147° |
| 2026-05-05 17:56 | 51.63201 | -1.19037 | 34942 ft | 432 kts | 147° |
| 2026-05-05 17:56 | 51.58252 | -1.13467 | 34938 ft | 435 kts | 147° |
| 2026-05-05 17:57 | 51.53295 | -1.07894 | 34939 ft | 433 kts | 147° |
| 2026-05-05 17:57 | 51.48354 | -1.02353 | 34940 ft | 433 kts | 147° |
| 2026-05-05 17:58 | 51.43413 | -0.96825 | 34938 ft | 434 kts | 147° |
| 2026-05-05 17:58 | 51.38458 | -0.91298 | 34936 ft | 434 kts | 147° |
| 2026-05-05 17:59 | 51.33488 | -0.85766 | 34937 ft | 435 kts | 147° |
| 2026-05-05 17:59 | 51.28517 | -0.80248 | 34936 ft | 435 kts | 147° |
| 2026-05-05 18:00 | 51.23537 | -0.74736 | 34939 ft | 436 kts | 146° |
| 2026-05-05 18:00 | 51.18557 | -0.69237 | 34936 ft | 436 kts | 146° |
| 2026-05-05 18:01 | 51.13596 | -0.63773 | 34935 ft | 436 kts | 146° |
| 2026-05-05 18:01 | 51.08522 | -0.58221 | 34929 ft | 445 kts | 147° |
| 2026-05-05 18:02 | 51.03373 | -0.52630 | 34930 ft | 449 kts | 147° |
| 2026-05-05 18:02 | 50.98229 | -0.47031 | 34936 ft | 447 kts | 147° |
| 2026-05-05 18:03 | 50.93142 | -0.41479 | 34934 ft | 447 kts | 146° |
| 2026-05-05 18:03 | 50.87982 | -0.35853 | 34939 ft | 447 kts | 146° |
| 2026-05-05 18:04 | 50.82883 | -0.30313 | 34938 ft | 447 kts | 146° |
| 2026-05-05 18:04 | 50.77758 | -0.24764 | 34937 ft | 447 kts | 146° |
| 2026-05-05 18:05 | 50.72624 | -0.19224 | 34931 ft | 446 kts | 146° |
| 2026-05-05 18:05 | 50.67500 | -0.13711 | 34934 ft | 446 kts | 146° |
| 2026-05-05 18:06 | 50.62382 | -0.08220 | 34933 ft | 445 kts | 146° |
| 2026-05-05 18:06 | 50.57258 | -0.02739 | 34927 ft | 444 kts | 146° |
| 2026-05-05 18:07 | 50.52147 | 0.02713 | 34929 ft | 443 kts | 146° |
| 2026-05-05 18:07 | 50.47043 | 0.08143 | 34919 ft | 442 kts | 146° |
| 2026-05-05 18:08 | 50.41954 | 0.13542 | 34920 ft | 441 kts | 146° |
| 2026-05-05 18:08 | 50.36873 | 0.18918 | 34919 ft | 440 kts | 146° |
| 2026-05-05 18:09 | 50.31797 | 0.24274 | 34917 ft | 439 kts | 146° |
| 2026-05-05 18:09 | 50.26734 | 0.29602 | 34918 ft | 438 kts | 146° |
| 2026-05-05 18:10 | 50.21682 | 0.34905 | 34916 ft | 437 kts | 146° |
| 2026-05-05 18:10 | 50.16631 | 0.40193 | 34908 ft | 437 kts | 146° |
| 2026-05-05 18:11 | 50.11590 | 0.45457 | 34909 ft | 436 kts | 146° |
| 2026-05-05 18:11 | 50.06550 | 0.50705 | 34903 ft | 435 kts | 146° |
| 2026-05-05 18:12 | 50.01524 | 0.55925 | 34905 ft | 435 kts | 146° |
| 2026-05-05 18:12 | 49.97338 | 0.60263 | 34904 ft | 435 kts | 146° |
| 2026-05-05 18:13 | 49.92299 | 0.65474 | 34900 ft | 436 kts | 146° |
| 2026-05-05 18:13 | 49.87250 | 0.70680 | 34893 ft | 436 kts | 146° |
| 2026-05-05 18:14 | 49.82194 | 0.75881 | 34894 ft | 436 kts | 146° |
| 2026-05-05 18:14 | 49.77135 | 0.81072 | 34888 ft | 437 kts | 146° |
| 2026-05-05 18:15 | 49.72058 | 0.86268 | 34881 ft | 437 kts | 146° |
| 2026-05-05 18:15 | 49.66988 | 0.91443 | 34872 ft | 438 kts | 146° |
| 2026-05-05 18:16 | 49.61945 | 0.96578 | 34867 ft | 438 kts | 146° |
| 2026-05-05 18:16 | 49.56800 | 1.01805 | 34859 ft | 438 kts | 146° |
| 2026-05-05 18:17 | 49.51705 | 1.06966 | 34858 ft | 439 kts | 146° |
| 2026-05-05 18:17 | 49.46601 | 1.12123 | 34858 ft | 439 kts | 146° |
| 2026-05-05 18:18 | 49.41503 | 1.17310 | 34856 ft | 439 kts | 143° |
| 2026-05-05 18:18 | 49.36673 | 1.23027 | 34856 ft | 438 kts | 141° |
| 2026-05-05 18:19 | 49.31909 | 1.28862 | 34855 ft | 438 kts | 141° |
| 2026-05-05 18:19 | 49.27157 | 1.34713 | 34853 ft | 438 kts | 141° |
| 2026-05-05 18:20 | 49.22432 | 1.40504 | 34849 ft | 438 kts | 141° |
| 2026-05-05 18:20 | 49.17644 | 1.46344 | 34845 ft | 438 kts | 141° |
| 2026-05-05 18:21 | 49.12912 | 1.52099 | 34842 ft | 438 kts | 141° |
| 2026-05-05 18:21 | 49.08149 | 1.57876 | 34837 ft | 437 kts | 141° |
| 2026-05-05 18:22 | 49.03375 | 1.63652 | 34834 ft | 437 kts | 141° |
| 2026-05-05 18:22 | 48.98605 | 1.69409 | 34832 ft | 438 kts | 141° |
| 2026-05-05 18:23 | 48.93803 | 1.75191 | 34834 ft | 438 kts | 141° |
| 2026-05-05 18:23 | 48.89048 | 1.80900 | 34827 ft | 438 kts | 141° |
| 2026-05-05 18:24 | 48.84261 | 1.86635 | 34828 ft | 438 kts | 141° |
| 2026-05-05 18:24 | 48.79478 | 1.92350 | 34831 ft | 438 kts | 141° |
| 2026-05-05 18:25 | 48.74694 | 1.98052 | 34831 ft | 438 kts | 141° |
| 2026-05-05 18:25 | 48.69885 | 2.03770 | 34827 ft | 439 kts | 141° |
| 2026-05-05 18:26 | 48.65095 | 2.09451 | 34829 ft | 439 kts | 141° |
| 2026-05-05 18:26 | 48.60261 | 2.15171 | 34828 ft | 440 kts | 141° |
| 2026-05-05 18:27 | 48.55614 | 2.21175 | 34830 ft | 440 kts | 136° |
| 2026-05-05 18:27 | 48.51250 | 2.27655 | 34826 ft | 441 kts | 135° |
| 2026-05-05 18:28 | 48.44764 | 2.37517 | 34812 ft | 442 kts | 134° |
| 2026-05-05 18:28 | 48.41758 | 2.42078 | 34814 ft | 443 kts | 135° |
| 2026-05-05 18:29 | 48.31697 | 2.57241 | 34814 ft | 445 kts | 135° |
| 2026-05-05 18:30 | 48.26898 | 2.63072 | 34817 ft | 445 kts | 150° |
| 2026-05-05 18:30 | 48.21391 | 2.67328 | 34816 ft | 446 kts | 154° |
| 2026-05-05 18:31 | 48.15882 | 2.71615 | 34818 ft | 447 kts | 152° |
| 2026-05-05 18:31 | 48.10396 | 2.76033 | 34819 ft | 447 kts | 152° |
| 2026-05-05 18:32 | 48.04766 | 2.79996 | 34818 ft | 447 kts | 157° |
| 2026-05-05 18:32 | 47.99056 | 2.83688 | 34821 ft | 447 kts | 158° |
| 2026-05-05 18:33 | 47.93329 | 2.87316 | 34822 ft | 447 kts | 158° |
| 2026-05-05 18:33 | 47.87643 | 2.90910 | 34824 ft | 447 kts | 158° |
| 2026-05-05 18:34 | 47.81910 | 2.94531 | 34827 ft | 447 kts | 158° |
| 2026-05-05 18:34 | 47.76184 | 2.98144 | 34829 ft | 447 kts | 158° |
| 2026-05-05 18:35 | 47.70460 | 3.01749 | 34831 ft | 447 kts | 158° |
| 2026-05-05 18:35 | 47.64738 | 3.05343 | 34836 ft | 447 kts | 158° |
| 2026-05-05 18:36 | 47.59023 | 3.08926 | 34833 ft | 447 kts | 158° |
| 2026-05-05 18:36 | 47.53290 | 3.12510 | 34839 ft | 447 kts | 158° |
| 2026-05-05 18:37 | 47.47566 | 3.16075 | 34839 ft | 447 kts | 158° |
| 2026-05-05 18:37 | 47.41823 | 3.19638 | 34843 ft | 447 kts | 158° |
| 2026-05-05 18:38 | 47.36097 | 3.23188 | 34841 ft | 447 kts | 158° |
| 2026-05-05 18:38 | 47.30363 | 3.26736 | 34845 ft | 447 kts | 159° |
| 2026-05-05 18:39 | 47.24631 | 3.30272 | 34849 ft | 447 kts | 159° |
| 2026-05-05 18:39 | 47.18894 | 3.33801 | 34852 ft | 447 kts | 159° |
| 2026-05-05 18:40 | 47.13156 | 3.37326 | 34855 ft | 447 kts | 159° |
| 2026-05-05 18:40 | 47.07419 | 3.40840 | 34849 ft | 447 kts | 159° |
| 2026-05-05 18:41 | 47.01723 | 3.44323 | 34852 ft | 447 kts | 159° |
| 2026-05-05 18:41 | 46.95988 | 3.47821 | 34852 ft | 447 kts | 159° |
| 2026-05-05 18:42 | 46.90256 | 3.51308 | 34852 ft | 446 kts | 159° |
| 2026-05-05 18:42 | 46.84515 | 3.54793 | 34853 ft | 446 kts | 159° |
| 2026-05-05 18:43 | 46.78795 | 3.58320 | 34851 ft | 447 kts | 155° |
| 2026-05-05 18:43 | 46.73635 | 3.63374 | 34854 ft | 451 kts | 139° |
| 2026-05-05 18:44 | 46.69845 | 3.70701 | 34851 ft | 458 kts | 118° |
| 2026-05-05 18:44 | 46.67783 | 3.79512 | 34854 ft | 463 kts | 107° |
| 2026-05-05 18:45 | 46.66247 | 3.88641 | 34854 ft | 465 kts | 106° |
| 2026-05-05 18:45 | 46.64754 | 3.97808 | 34854 ft | 465 kts | 106° |
| 2026-05-05 18:46 | 46.63208 | 4.06940 | 34852 ft | 465 kts | 107° |
| 2026-05-05 18:46 | 46.61625 | 4.16051 | 34853 ft | 465 kts | 107° |
| 2026-05-05 18:47 | 46.60025 | 4.25159 | 34855 ft | 465 kts | 107° |
| 2026-05-05 18:47 | 46.58421 | 4.34257 | 34853 ft | 465 kts | 107° |
| 2026-05-05 18:48 | 46.56808 | 4.43364 | 34853 ft | 465 kts | 107° |
| 2026-05-05 18:48 | 46.55191 | 4.52462 | 34858 ft | 465 kts | 108° |
| 2026-05-05 18:49 | 46.53562 | 4.61578 | 34860 ft | 466 kts | 108° |
| 2026-05-05 18:49 | 46.51925 | 4.70686 | 34859 ft | 467 kts | 108° |
| 2026-05-05 18:50 | 46.50282 | 4.79794 | 34859 ft | 467 kts | 108° |
| 2026-05-05 18:50 | 46.48625 | 4.88928 | 34859 ft | 468 kts | 108° |
| 2026-05-05 18:51 | 46.46956 | 4.98081 | 34861 ft | 469 kts | 109° |
| 2026-05-05 18:51 | 46.45280 | 5.07235 | 34867 ft | 470 kts | 109° |
| 2026-05-05 18:52 | 46.43594 | 5.16400 | 34867 ft | 471 kts | 109° |
| 2026-05-05 18:52 | 46.41915 | 5.25490 | 34871 ft | 472 kts | 109° |
| 2026-05-05 18:53 | 46.40206 | 5.34701 | 34876 ft | 473 kts | 109° |
| 2026-05-05 18:53 | 46.37654 | 5.43407 | 34877 ft | 462 kts | 127° |
| 2026-05-05 18:54 | 46.33825 | 5.50734 | 34888 ft | 458 kts | 134° |
| 2026-05-05 18:54 | 46.29688 | 5.57750 | 34889 ft | 458 kts | 136° |
| 2026-05-05 18:55 | 46.25503 | 5.64706 | 34893 ft | 459 kts | 136° |
| 2026-05-05 18:55 | 46.21333 | 5.71679 | 34905 ft | 459 kts | 136° |
| 2026-05-05 18:56 | 46.17162 | 5.78688 | 34908 ft | 460 kts | 136° |
| 2026-05-05 18:56 | 46.13004 | 5.85669 | 34908 ft | 460 kts | 136° |
| 2026-05-05 18:57 | 46.08826 | 5.92669 | 34900 ft | 459 kts | 136° |
| 2026-05-05 18:57 | 46.04649 | 5.99645 | 34909 ft | 460 kts | 136° |
| 2026-05-05 18:58 | 46.00478 | 6.06598 | 34908 ft | 460 kts | 136° |
| 2026-05-05 18:58 | 45.96284 | 6.13572 | 34916 ft | 460 kts | 137° |
| 2026-05-05 18:59 | 45.92803 | 6.19343 | 34902 ft | 461 kts | 137° |
| 2026-05-05 18:59 | 45.88598 | 6.26292 | 34902 ft | 461 kts | 137° |
| 2026-05-05 19:00 | 45.84381 | 6.33243 | 34904 ft | 462 kts | 137° |
| 2026-05-05 19:00 | 45.79940 | 6.39753 | 34906 ft | 453 kts | 148° |
| 2026-05-05 19:01 | 45.75075 | 6.45554 | 34905 ft | 456 kts | 145° |
| 2026-05-05 19:01 | 45.70314 | 6.51584 | 34893 ft | 457 kts | 145° |
| 2026-05-05 19:02 | 45.65547 | 6.57585 | 34905 ft | 457 kts | 145° |
| 2026-05-05 19:02 | 45.60746 | 6.63536 | 34910 ft | 456 kts | 146° |
| 2026-05-05 19:03 | 45.55936 | 6.69450 | 34902 ft | 456 kts | 146° |
| 2026-05-05 19:03 | 45.51138 | 6.75333 | 34909 ft | 455 kts | 147° |
| 2026-05-05 19:04 | 45.46341 | 6.81205 | 34915 ft | 454 kts | 147° |
| 2026-05-05 19:04 | 45.41551 | 6.87056 | 34908 ft | 453 kts | 147° |
| 2026-05-05 19:05 | 45.36777 | 6.92878 | 34931 ft | 452 kts | 147° |
| 2026-05-05 19:05 | 45.32025 | 6.98659 | 34945 ft | 452 kts | 147° |
| 2026-05-05 19:06 | 45.27261 | 7.04445 | 34946 ft | 451 kts | 147° |
| 2026-05-05 19:06 | 45.22487 | 7.10228 | 34958 ft | 451 kts | 148° |
| 2026-05-05 19:07 | 45.17702 | 7.16008 | 34967 ft | 451 kts | 148° |
| 2026-05-05 19:07 | 45.12937 | 7.21754 | 34959 ft | 450 kts | 148° |
| 2026-05-05 19:08 | 45.08167 | 7.27495 | 34957 ft | 450 kts | 148° |
| 2026-05-05 19:08 | 45.03394 | 7.33224 | 34960 ft | 449 kts | 148° |
| 2026-05-05 19:09 | 44.98622 | 7.38939 | 34965 ft | 449 kts | 148° |
| 2026-05-05 19:09 | 44.93852 | 7.44639 | 34960 ft | 449 kts | 148° |
| 2026-05-05 19:10 | 44.89078 | 7.50332 | 34959 ft | 449 kts | 149° |
| 2026-05-05 19:10 | 44.84296 | 7.56022 | 34959 ft | 449 kts | 149° |
| 2026-05-05 19:11 | 44.79521 | 7.61691 | 34959 ft | 449 kts | 149° |
| 2026-05-05 19:11 | 44.74742 | 7.67351 | 34963 ft | 449 kts | 149° |
| 2026-05-05 19:12 | 44.69960 | 7.73001 | 34963 ft | 449 kts | 149° |
| 2026-05-05 19:12 | 44.65171 | 7.78649 | 34964 ft | 449 kts | 149° |
| 2026-05-05 19:13 | 44.60377 | 7.84289 | 34960 ft | 449 kts | 149° |
| 2026-05-05 19:13 | 44.55578 | 7.89923 | 34962 ft | 450 kts | 149° |
| 2026-05-05 19:14 | 44.50776 | 7.95548 | 34960 ft | 450 kts | 150° |
| 2026-05-05 19:14 | 44.45971 | 8.01164 | 34952 ft | 450 kts | 150° |
| 2026-05-05 19:15 | 44.41193 | 8.06735 | 34949 ft | 450 kts | 150° |
| 2026-05-05 19:15 | 44.36378 | 8.12339 | 34952 ft | 450 kts | 150° |
| 2026-05-05 19:16 | 44.31565 | 8.17926 | 34952 ft | 450 kts | 150° |
| 2026-05-05 19:16 | 44.26739 | 8.23515 | 34953 ft | 450 kts | 150° |
| 2026-05-05 19:17 | 44.21920 | 8.29086 | 34953 ft | 451 kts | 150° |
| 2026-05-05 19:17 | 44.17087 | 8.34661 | 34957 ft | 451 kts | 150° |
| 2026-05-05 19:18 | 44.12251 | 8.40225 | 34954 ft | 451 kts | 150° |
| 2026-05-05 19:18 | 44.07413 | 8.45781 | 34951 ft | 451 kts | 150° |
| 2026-05-05 19:19 | 44.02564 | 8.51338 | 34946 ft | 451 kts | 150° |
| 2026-05-05 19:19 | 43.97715 | 8.56882 | 34941 ft | 452 kts | 150° |
| 2026-05-05 19:20 | 43.92860 | 8.62420 | 34937 ft | 452 kts | 150° |
| 2026-05-05 19:20 | 43.87994 | 8.67958 | 34937 ft | 453 kts | 150° |
| 2026-05-05 19:21 | 43.83120 | 8.73494 | 34944 ft | 453 kts | 150° |
| 2026-05-05 19:21 | 43.78236 | 8.79029 | 34933 ft | 454 kts | 150° |
| 2026-05-05 19:22 | 43.73348 | 8.84557 | 34943 ft | 454 kts | 150° |
| 2026-05-05 19:22 | 43.68452 | 8.90084 | 34946 ft | 455 kts | 149° |
| 2026-05-05 19:23 | 43.63541 | 8.95627 | 34943 ft | 456 kts | 150° |
| 2026-05-05 19:23 | 43.58619 | 9.01143 | 34949 ft | 457 kts | 150° |
| 2026-05-05 19:24 | 43.53683 | 9.06670 | 34950 ft | 457 kts | 150° |
| 2026-05-05 19:24 | 43.48735 | 9.12203 | 34949 ft | 458 kts | 150° |
| 2026-05-05 19:25 | 43.43810 | 9.17702 | 34953 ft | 459 kts | 150° |
| 2026-05-05 19:25 | 43.38845 | 9.23233 | 34952 ft | 460 kts | 150° |
| 2026-05-05 19:26 | 43.33868 | 9.28765 | 34952 ft | 460 kts | 150° |
| 2026-05-05 19:26 | 43.28889 | 9.34288 | 34955 ft | 460 kts | 150° |
| 2026-05-05 19:27 | 43.23905 | 9.39804 | 34957 ft | 461 kts | 150° |
| 2026-05-05 19:27 | 43.18909 | 9.45320 | 34954 ft | 461 kts | 150° |
| 2026-05-05 19:28 | 43.13915 | 9.50823 | 34959 ft | 461 kts | 150° |
| 2026-05-05 19:28 | 43.08914 | 9.56322 | 34957 ft | 461 kts | 150° |
| 2026-05-05 19:29 | 43.03911 | 9.61810 | 34954 ft | 461 kts | 149° |
| 2026-05-05 19:29 | 42.98901 | 9.67294 | 34958 ft | 462 kts | 149° |
| 2026-05-05 19:30 | 42.93880 | 9.72777 | 34954 ft | 462 kts | 149° |
| 2026-05-05 19:30 | 42.88846 | 9.78264 | 34956 ft | 463 kts | 149° |
| 2026-05-05 19:31 | 42.83808 | 9.83743 | 34966 ft | 464 kts | 149° |
| 2026-05-05 19:31 | 42.78759 | 9.89223 | 34956 ft | 464 kts | 149° |
| 2026-05-05 19:32 | 42.73703 | 9.94699 | 34958 ft | 465 kts | 149° |
| 2026-05-05 19:32 | 42.68636 | 10.00174 | 34958 ft | 465 kts | 149° |
| 2026-05-05 19:33 | 42.63601 | 10.05603 | 34956 ft | 466 kts | 149° |
| 2026-05-05 19:33 | 42.58520 | 10.11071 | 34962 ft | 466 kts | 149° |
| 2026-05-05 19:34 | 42.53439 | 10.16527 | 34960 ft | 466 kts | 149° |
| 2026-05-05 19:35 | 42.45814 | 10.24693 | 34963 ft | 465 kts | 149° |
| 2026-05-05 19:35 | 42.40735 | 10.30118 | 34961 ft | 465 kts | 149° |
| 2026-05-05 19:36 | 42.35649 | 10.35534 | 34966 ft | 464 kts | 150° |
| 2026-05-05 19:36 | 42.30199 | 10.39859 | 34970 ft | 449 kts | 163° |
| 2026-05-05 19:37 | 42.24500 | 10.43263 | 34968 ft | 447 kts | 165° |
| 2026-05-05 19:37 | 42.18758 | 10.46485 | 34972 ft | 447 kts | 165° |
| 2026-05-05 19:38 | 42.13017 | 10.49694 | 34975 ft | 447 kts | 165° |
| 2026-05-05 19:38 | 42.07282 | 10.52922 | 34983 ft | 447 kts | 165° |
| 2026-05-05 19:39 | 42.01544 | 10.56159 | 34975 ft | 447 kts | 165° |
| 2026-05-05 19:39 | 41.95802 | 10.59396 | 34977 ft | 448 kts | 165° |
| 2026-05-05 19:40 | 41.90033 | 10.62641 | 34981 ft | 449 kts | 165° |
| 2026-05-05 19:40 | 41.84258 | 10.65882 | 34984 ft | 450 kts | 165° |
| 2026-05-05 19:41 | 41.78470 | 10.69124 | 34986 ft | 452 kts | 165° |
| 2026-05-05 19:41 | 41.72665 | 10.72369 | 34988 ft | 453 kts | 165° |
| 2026-05-05 19:42 | 41.66842 | 10.75617 | 34984 ft | 454 kts | 165° |
| 2026-05-05 19:42 | 41.61011 | 10.78864 | 34993 ft | 455 kts | 165° |
| 2026-05-05 19:43 | 41.55205 | 10.82091 | 34990 ft | 456 kts | 164° |
| 2026-05-05 19:43 | 41.49341 | 10.85344 | 34990 ft | 456 kts | 164° |
| 2026-05-05 19:44 | 41.43468 | 10.88595 | 34994 ft | 457 kts | 164° |
| 2026-05-05 19:44 | 41.37593 | 10.91841 | 34994 ft | 457 kts | 164° |
| 2026-05-05 19:45 | 41.31718 | 10.95081 | 34996 ft | 458 kts | 164° |
| 2026-05-05 19:45 | 41.25830 | 10.98321 | 35001 ft | 458 kts | 164° |
| 2026-05-05 19:46 | 41.19945 | 11.01553 | 34999 ft | 457 kts | 163° |
| 2026-05-05 19:46 | 41.14066 | 11.04776 | 34997 ft | 457 kts | 163° |
| 2026-05-05 19:47 | 41.09179 | 11.07449 | 35001 ft | 457 kts | 163° |
| 2026-05-05 19:47 | 41.03302 | 11.10659 | 35002 ft | 457 kts | 163° |
| 2026-05-05 19:48 | 40.97422 | 11.13864 | 35005 ft | 457 kts | 163° |
| 2026-05-05 19:48 | 40.90586 | 11.17583 | 35011 ft | 457 kts | 163° |
| 2026-05-05 19:49 | 40.85647 | 11.20264 | 35008 ft | 458 kts | 163° |
| 2026-05-05 19:49 | 40.79882 | 11.23926 | 35010 ft | 462 kts | 158° |
| 2026-05-05 19:50 | 40.74206 | 11.27915 | 35013 ft | 462 kts | 157° |
| 2026-05-05 19:50 | 40.68552 | 11.31955 | 35014 ft | 462 kts | 156° |
| 2026-05-05 19:51 | 40.62933 | 11.35960 | 35016 ft | 462 kts | 156° |
| 2026-05-05 19:51 | 40.57279 | 11.39974 | 35020 ft | 462 kts | 156° |
| 2026-05-05 19:52 | 40.51631 | 11.43975 | 35021 ft | 461 kts | 156° |
| 2026-05-05 19:52 | 40.45972 | 11.47966 | 35026 ft | 461 kts | 156° |
| 2026-05-05 19:53 | 40.40315 | 11.51944 | 35028 ft | 461 kts | 156° |
| 2026-05-05 19:53 | 40.34660 | 11.55912 | 35026 ft | 461 kts | 157° |
| 2026-05-05 19:54 | 40.28996 | 11.59869 | 35027 ft | 461 kts | 156° |
| 2026-05-05 19:54 | 40.23329 | 11.63788 | 35023 ft | 460 kts | 158° |
| 2026-05-05 19:55 | 40.17611 | 11.67559 | 35027 ft | 460 kts | 158° |
| 2026-05-05 19:55 | 40.11896 | 11.71294 | 35038 ft | 460 kts | 158° |
| 2026-05-05 19:56 | 40.06195 | 11.75036 | 35042 ft | 460 kts | 158° |
| 2026-05-05 19:56 | 40.00468 | 11.78807 | 35039 ft | 460 kts | 158° |
| 2026-05-05 19:57 | 39.94762 | 11.82564 | 35042 ft | 460 kts | 158° |
| 2026-05-05 19:57 | 39.89042 | 11.86322 | 35035 ft | 460 kts | 157° |
| 2026-05-05 19:58 | 39.83331 | 11.90063 | 35041 ft | 460 kts | 158° |
| 2026-05-05 19:58 | 39.77611 | 11.93792 | 35043 ft | 460 kts | 158° |
| 2026-05-05 19:59 | 39.71889 | 11.97529 | 35044 ft | 460 kts | 158° |
| 2026-05-05 19:59 | 39.66170 | 12.01264 | 35045 ft | 460 kts | 158° |
| 2026-05-05 20:00 | 39.60495 | 12.04958 | 35046 ft | 460 kts | 158° |
| 2026-05-05 20:00 | 39.54738 | 12.08697 | 35038 ft | 459 kts | 158° |
| 2026-05-05 20:01 | 39.49067 | 12.12371 | 35047 ft | 459 kts | 158° |
| 2026-05-05 20:01 | 39.43355 | 12.16065 | 35047 ft | 459 kts | 158° |
| 2026-05-05 20:02 | 39.37640 | 12.19755 | 35045 ft | 459 kts | 158° |
| 2026-05-05 20:02 | 39.31922 | 12.23439 | 35049 ft | 459 kts | 158° |
| 2026-05-05 20:03 | 39.26206 | 12.27115 | 35047 ft | 459 kts | 158° |
| 2026-05-05 20:03 | 39.20492 | 12.30783 | 35045 ft | 459 kts | 158° |
| 2026-05-05 20:04 | 39.14778 | 12.34445 | 35040 ft | 459 kts | 158° |
| 2026-05-05 20:04 | 39.09051 | 12.38108 | 35041 ft | 459 kts | 158° |
| 2026-05-05 20:05 | 39.03335 | 12.41757 | 35045 ft | 459 kts | 158° |
| 2026-05-05 20:05 | 38.97616 | 12.45402 | 35037 ft | 459 kts | 158° |
| 2026-05-05 20:06 | 38.91897 | 12.49040 | 35033 ft | 459 kts | 158° |
| 2026-05-05 20:06 | 38.86169 | 12.52677 | 35033 ft | 459 kts | 158° |
| 2026-05-05 20:07 | 38.80451 | 12.56301 | 35039 ft | 459 kts | 158° |
| 2026-05-05 20:07 | 38.74721 | 12.59927 | 35044 ft | 459 kts | 158° |
| 2026-05-05 20:08 | 38.68990 | 12.63545 | 35040 ft | 459 kts | 158° |
| 2026-05-05 20:08 | 38.63257 | 12.67159 | 35042 ft | 460 kts | 158° |
| 2026-05-05 20:09 | 38.57516 | 12.70772 | 35036 ft | 460 kts | 158° |
| 2026-05-05 20:09 | 38.51765 | 12.74385 | 35037 ft | 460 kts | 158° |
| 2026-05-05 20:10 | 38.46017 | 12.77989 | 35039 ft | 460 kts | 158° |
| 2026-05-05 20:10 | 38.40264 | 12.81590 | 35036 ft | 461 kts | 157° |
| 2026-05-05 20:11 | 38.34509 | 12.85185 | 35031 ft | 461 kts | 157° |
| 2026-05-05 20:11 | 38.28788 | 12.88754 | 35029 ft | 461 kts | 157° |
| 2026-05-05 20:12 | 38.22988 | 12.92365 | 35026 ft | 461 kts | 157° |
| 2026-05-05 20:12 | 38.17269 | 12.95919 | 35022 ft | 461 kts | 157° |
| 2026-05-05 20:13 | 38.11502 | 12.99496 | 35023 ft | 461 kts | 157° |
| 2026-05-05 20:13 | 38.05729 | 13.03071 | 35026 ft | 462 kts | 157° |
| 2026-05-05 20:14 | 37.99955 | 13.06641 | 35033 ft | 462 kts | 157° |
| 2026-05-05 20:14 | 37.94182 | 13.10204 | 35039 ft | 462 kts | 157° |
| 2026-05-05 20:15 | 37.88408 | 13.13761 | 35044 ft | 462 kts | 157° |
| 2026-05-05 20:15 | 37.82628 | 13.17315 | 35053 ft | 462 kts | 157° |
| 2026-05-05 20:16 | 37.76847 | 13.20864 | 35057 ft | 462 kts | 157° |
| 2026-05-05 20:16 | 37.71068 | 13.24405 | 35064 ft | 462 kts | 157° |
| 2026-05-05 20:17 | 37.65290 | 13.27939 | 35067 ft | 462 kts | 157° |
| 2026-05-05 20:17 | 37.59502 | 13.31474 | 35066 ft | 462 kts | 157° |
| 2026-05-05 20:18 | 37.53722 | 13.34997 | 35072 ft | 461 kts | 157° |
| 2026-05-05 20:18 | 37.47938 | 13.38517 | 35073 ft | 462 kts | 157° |
| 2026-05-05 20:19 | 37.42146 | 13.42036 | 35024 ft | 462 kts | 157° |
| 2026-05-05 20:19 | 37.39253 | 13.43792 | 34706 ft | 462 kts | 157° |
| 2026-05-05 20:19 | 37.36358 | 13.45547 | 34355 ft | 462 kts | 157° |
| 2026-05-05 20:19 | 37.33454 | 13.47305 | 33923 ft | 463 kts | 157° |
| 2026-05-05 20:20 | 37.30548 | 13.49065 | 33313 ft | 465 kts | 157° |
| 2026-05-05 20:20 | 37.27635 | 13.50829 | 32705 ft | 466 kts | 157° |
| 2026-05-05 20:20 | 37.24717 | 13.52595 | 32117 ft | 467 kts | 157° |
| 2026-05-05 20:20 | 37.21786 | 13.54367 | 31537 ft | 468 kts | 157° |
| 2026-05-05 20:21 | 37.18838 | 13.56147 | 30965 ft | 470 kts | 157° |
| 2026-05-05 20:21 | 37.15891 | 13.57925 | 30416 ft | 472 kts | 157° |
| 2026-05-05 20:21 | 37.12929 | 13.59709 | 29821 ft | 473 kts | 157° |
| 2026-05-05 20:21 | 37.09970 | 13.61491 | 29174 ft | 470 kts | 157° |
| 2026-05-05 20:22 | 37.07037 | 13.63256 | 28550 ft | 466 kts | 157° |
| 2026-05-05 20:22 | 37.04125 | 13.65006 | 27960 ft | 461 kts | 157° |
| 2026-05-05 20:22 | 37.01245 | 13.66734 | 27357 ft | 457 kts | 157° |
| 2026-05-05 20:22 | 36.98394 | 13.68442 | 26770 ft | 452 kts | 157° |
| 2026-05-05 20:23 | 36.95571 | 13.70131 | 26204 ft | 448 kts | 157° |
| 2026-05-05 20:23 | 36.92759 | 13.71811 | 25642 ft | 445 kts | 157° |
| 2026-05-05 20:23 | 36.89979 | 13.73471 | 25094 ft | 441 kts | 157° |
| 2026-05-05 20:23 | 36.87224 | 13.75116 | 24558 ft | 438 kts | 157° |
| 2026-05-05 20:24 | 36.84485 | 13.76750 | 24033 ft | 434 kts | 157° |
| 2026-05-05 20:24 | 36.81769 | 13.78369 | 23481 ft | 431 kts | 157° |
| 2026-05-05 20:24 | 36.79104 | 13.79956 | 22875 ft | 428 kts | 157° |
| 2026-05-05 20:24 | 36.76427 | 13.81551 | 22265 ft | 425 kts | 157° |
| 2026-05-05 20:25 | 36.73742 | 13.83148 | 21672 ft | 421 kts | 157° |
| 2026-05-05 20:25 | 36.71145 | 13.84692 | 21100 ft | 418 kts | 157° |
| 2026-05-05 20:25 | 36.68530 | 13.86246 | 20521 ft | 414 kts | 156° |
| 2026-05-05 20:25 | 36.65943 | 13.87781 | 19981 ft | 411 kts | 157° |
| 2026-05-05 20:26 | 36.63373 | 13.89306 | 19427 ft | 407 kts | 156° |
| 2026-05-05 20:26 | 36.60824 | 13.90816 | 18888 ft | 405 kts | 156° |
| 2026-05-05 20:26 | 36.58288 | 13.92319 | 18357 ft | 401 kts | 156° |
| 2026-05-05 20:26 | 36.55781 | 13.93803 | 17759 ft | 398 kts | 156° |
| 2026-05-05 20:27 | 36.53294 | 13.95274 | 17159 ft | 394 kts | 156° |
| 2026-05-05 20:27 | 36.50828 | 13.96731 | 16573 ft | 390 kts | 157° |
| 2026-05-05 20:27 | 36.48369 | 13.98104 | 16000 ft | 386 kts | 159° |
| 2026-05-05 20:27 | 36.45906 | 13.99385 | 15436 ft | 382 kts | 160° |
| 2026-05-05 20:28 | 36.43447 | 14.00617 | 14886 ft | 378 kts | 160° |
| 2026-05-05 20:28 | 36.41017 | 14.01820 | 14334 ft | 375 kts | 160° |
| 2026-05-05 20:28 | 36.38601 | 14.03016 | 13799 ft | 372 kts | 160° |
| 2026-05-05 20:28 | 36.36207 | 14.04207 | 13202 ft | 369 kts | 160° |
| 2026-05-05 20:29 | 36.33839 | 14.05392 | 12600 ft | 365 kts | 160° |
| 2026-05-05 20:29 | 36.31496 | 14.06570 | 12039 ft | 361 kts | 160° |
| 2026-05-05 20:29 | 36.29165 | 14.07680 | 11464 ft | 357 kts | 164° |
| 2026-05-05 20:29 | 36.26761 | 14.08241 | 10912 ft | 349 kts | 182° |
| 2026-05-05 20:30 | 36.24409 | 14.07710 | 10365 ft | 342 kts | 203° |
| 2026-05-05 20:30 | 36.22432 | 14.06167 | 9810 ft | 336 kts | 224° |
| 2026-05-05 20:30 | 36.21076 | 14.03849 | 9225 ft | 332 kts | 245° |
| 2026-05-05 20:30 | 36.20536 | 14.01104 | 8645 ft | 330 kts | 266° |
| 2026-05-05 20:31 | 36.20907 | 13.98333 | 8238 ft | 325 kts | 291° |
| 2026-05-05 20:31 | 36.22118 | 13.96034 | 7920 ft | 318 kts | 314° |
| 2026-05-05 20:31 | 36.23940 | 13.94570 | 7619 ft | 312 kts | 339° |
| 2026-05-05 20:31 | 36.26043 | 13.94148 | 7302 ft | 304 kts | 359° |
| 2026-05-05 20:32 | 36.28130 | 13.94362 | 6990 ft | 298 kts | 12° |
| 2026-05-05 20:32 | 36.30046 | 13.95226 | 6677 ft | 291 kts | 32° |
| 2026-05-05 20:32 | 36.31525 | 13.96860 | 6375 ft | 283 kts | 56° |
| 2026-05-05 20:32 | 36.32301 | 13.99039 | 6053 ft | 274 kts | 81° |
| 2026-05-05 20:33 | 36.32287 | 14.01349 | 5732 ft | 266 kts | 105° |
| 2026-05-05 20:33 | 36.31582 | 14.03384 | 5418 ft | 258 kts | 127° |
| 2026-05-05 20:33 | 36.30314 | 14.04901 | 5318 ft | 255 kts | 143° |
| 2026-05-05 20:33 | 36.28862 | 14.06211 | 5239 ft | 262 kts | 146° |
| 2026-05-05 20:34 | 36.27361 | 14.07521 | 5169 ft | 264 kts | 146° |
| 2026-05-05 20:34 | 36.25865 | 14.08833 | 5090 ft | 264 kts | 145° |
| 2026-05-05 20:34 | 36.24373 | 14.10148 | 5073 ft | 263 kts | 145° |
| 2026-05-05 20:34 | 36.22882 | 14.11465 | 5073 ft | 263 kts | 145° |
| 2026-05-05 20:35 | 36.21396 | 14.12777 | 5072 ft | 263 kts | 145° |
| 2026-05-05 20:35 | 36.19902 | 14.14097 | 5071 ft | 263 kts | 145° |
| 2026-05-05 20:35 | 36.18413 | 14.15413 | 5074 ft | 263 kts | 145° |
| 2026-05-05 20:35 | 36.17409 | 14.16301 | 5076 ft | 263 kts | 145° |
| 2026-05-05 20:36 | 36.15917 | 14.17620 | 5015 ft | 264 kts | 145° |
| 2026-05-05 20:36 | 36.14422 | 14.18941 | 4762 ft | 264 kts | 144° |
| 2026-05-05 20:36 | 36.12935 | 14.20266 | 4490 ft | 263 kts | 144° |
| 2026-05-05 20:36 | 36.11475 | 14.21564 | 4218 ft | 261 kts | 144° |
| 2026-05-05 20:37 | 36.10010 | 14.22860 | 4088 ft | 258 kts | 144° |
| 2026-05-05 20:37 | 36.08552 | 14.24143 | 4082 ft | 258 kts | 144° |
| 2026-05-05 20:37 | 36.07089 | 14.25428 | 4011 ft | 257 kts | 144° |
| 2026-05-05 20:37 | 36.05633 | 14.26702 | 3990 ft | 256 kts | 145° |
| 2026-05-05 20:38 | 36.04176 | 14.27976 | 3996 ft | 257 kts | 145° |
| 2026-05-05 20:38 | 36.02719 | 14.29256 | 4007 ft | 257 kts | 145° |
| 2026-05-05 20:38 | 36.01109 | 14.30166 | 3991 ft | 256 kts | 170° |
| 2026-05-05 20:38 | 35.99369 | 14.30584 | 3994 ft | 254 kts | 155° |
| 2026-05-05 20:39 | 35.98041 | 14.31913 | 3843 ft | 244 kts | 130° |
| 2026-05-05 20:39 | 35.97003 | 14.33547 | 3522 ft | 242 kts | 129° |
| 2026-05-05 20:39 | 35.95917 | 14.35124 | 3149 ft | 239 kts | 133° |
| 2026-05-05 20:39 | 35.94776 | 14.36549 | 2852 ft | 227 kts | 136° |
| 2026-05-05 20:40 | 35.93690 | 14.37876 | 2518 ft | 214 kts | 134° |
| 2026-05-05 20:40 | 35.92679 | 14.39144 | 2249 ft | 201 kts | 134° |
| 2026-05-05 20:40 | 35.91726 | 14.40330 | 2022 ft | 189 kts | 135° |
| 2026-05-05 20:40 | 35.90823 | 14.41448 | 1757 ft | 178 kts | 135° |
| 2026-05-05 20:41 | 35.89994 | 14.42478 | 1537 ft | 159 kts | 134° |
| 2026-05-05 20:41 | 35.89252 | 14.43401 | 1294 ft | 144 kts | 134° |
| 2026-05-05 20:41 | 35.88578 | 14.44241 | 1079 ft | 132 kts | 134° |
| 2026-05-05 20:41 | 35.87952 | 14.45023 | 924 ft | 127 kts | 134° |
| 2026-05-05 20:42 | 35.87335 | 14.45805 | 762 ft | 127 kts | 135° |
| 2026-05-05 20:42 | 35.86699 | 14.46554 | 600 ft | 126 kts | 133° |
| 2026-05-05 20:42 | 35.86103 | 14.47329 | 423 ft | 124 kts | 135° |
| 2026-05-05 20:42 | 35.85491 | 14.48074 | 298 ft | 122 kts | 134° |
| 2026-05-05 20:43 | 35.84956 | 14.48745 | 261 ft | 89 kts | 136° |
| 2026-05-05 20:43 | 35.84655 | 14.49129 | 256 ft | 47 kts | 141° |
| 2026-05-05 20:43 | 35.84473 | 14.49392 | 256 ft | 29 kts | 112° |
| 2026-05-05 20:43 | 35.84471 | 14.49564 | 255 ft | 18 kts | 37° |
| 2026-05-05 20:44 | 35.84571 | 14.49540 | 255 ft | 14 kts | 5° |
| 2026-05-05 20:44 | 35.84653 | 14.49575 | 255 ft | 12 kts | 358° |
| 2026-05-05 20:44 | 35.84717 | 14.49539 | 255 ft | 9 kts | 314° |
| 2026-05-05 20:44 | 35.84758 | 14.49509 | 255 ft | 5 kts | 358° |
| 2026-05-05 20:45 | 35.84787 | 14.49511 | 256 ft | 0 kts | 3° |
| 2026-05-05 20:45 | 35.84798 | 14.49512 | 256 ft | 4 kts | 2° |
| 2026-05-05 20:45 | 35.84810 | 14.49512 | 256 ft | 0 kts | 1° |